Time;durP1;ratioP1;P1;durP2;ratioP2;P2;SDS_P1;SDS_P2;PMS_P1;PMS_P2;Temp;Humidity;BMP_temperature;BMP_pressure;BME280_temperature;BME280_humidity;BME280_pressure;Samples;Min_cycle;Max_cycle;Signal;HPM_P1;HPM_P2
2023/03/06 00:00:56;;;;;;;8.38;5.38;;;;;;;;;;4987003;28;20043;-85
2023/03/06 00:03:26;;;;;;;6.88;4.80;;;;;;;;;;4983193;28;20047;-84
2023/03/06 00:05:56;;;;;;;7.85;5.45;;;;;;;;;;4985127;28;20051;-83
2023/03/06 00:08:24;;;;;;;12.13;11.05;;;;;;;;;;4986162;28;20408;-83
2023/03/06 00:10:52;;;;;;;8.75;5.95;;;;;;;;;;4986023;28;20508;-83
2023/03/06 00:13:21;;;;;;;12.60;5.47;;;;;;;;;;4987895;28;20046;-85
2023/03/06 00:15:48;;;;;;;8.80;5.40;;;;;;;;;;4987073;28;20057;-84
2023/03/06 00:18:17;;;;;;;8.65;5.75;;;;;;;;;;4985664;28;20050;-84
2023/03/06 00:20:46;;;;;;;9.75;5.82;;;;;;;;;;4985591;28;20110;-84
2023/03/06 00:23:17;;;;;;;10.60;6.32;;;;;;;;;;4991247;28;20066;-83
2023/03/06 00:25:45;;;;;;;11.75;6.50;;;;;;;;;;4988060;28;20110;-84
2023/03/06 00:28:14;;;;;;;8.77;5.32;;;;;;;;;;4990462;28;20031;-84
2023/03/06 00:30:46;;;;;;;8.55;6.20;;;;;;;;;;4970095;28;20051;-85
2023/03/06 00:33:13;;;;;;;8.63;5.85;;;;;;;;;;4987155;28;20061;-85
2023/03/06 00:35:44;;;;;;;10.13;5.28;;;;;;;;;;4986821;28;20054;-84
2023/03/06 00:38:12;;;;;;;11.40;5.75;;;;;;;;;;4985305;28;20061;-83
2023/03/06 00:40:39;;;;;;;8.10;5.13;;;;;;;;;;4981424;28;20531;-84
2023/03/06 00:43:07;;;;;;;7.57;5.18;;;;;;;;;;4978521;28;20511;-83
2023/03/06 00:45:34;;;;;;;6.88;4.72;;;;;;;;;;4972196;28;20270;-84
2023/03/06 00:48:02;;;;;;;9.15;5.30;;;;;;;;;;4973758;28;20046;-85
2023/03/06 00:50:29;;;;;;;7.85;5.13;;;;;;;;;;4980516;28;20051;-87
2023/03/06 00:53:01;;;;;;;6.88;4.75;;;;;;;;;;4990724;28;20579;-86
2023/03/06 00:55:36;;;;;;;7.70;5.03;;;;;;;;;;4981212;28;20082;-84
2023/03/06 00:58:04;;;;;;;9.30;5.20;;;;;;;;;;4971447;28;20067;-84
2023/03/06 01:00:31;;;;;;;8.13;5.00;;;;;;;;;;4977958;28;20080;-85
2023/03/06 01:02:59;;;;;;;9.70;5.15;;;;;;;;;;4971080;28;20050;-84
2023/03/06 01:05:30;;;;;;;7.28;4.68;;;;;;;;;;4970784;28;20055;-84
2023/03/06 01:08:01;;;;;;;7.15;4.50;;;;;;;;;;4972587;28;20560;-84
2023/03/06 01:10:29;;;;;;;7.82;5.13;;;;;;;;;;4972203;28;20432;-83
2023/03/06 01:12:56;;;;;;;10.45;5.47;;;;;;;;;;4971495;28;20410;-85
2023/03/06 01:15:25;;;;;;;9.05;4.85;;;;;;;;;;4971340;28;20129;-83
2023/03/06 01:17:53;;;;;;;7.43;5.15;;;;;;;;;;4971138;28;20046;-83
2023/03/06 01:20:22;;;;;;;7.05;5.05;;;;;;;;;;4972430;28;20074;-83
2023/03/06 01:22:49;;;;;;;8.07;4.78;;;;;;;;;;4972219;28;20070;-84
2023/03/06 01:25:19;;;;;;;8.85;5.18;;;;;;;;;;4971397;28;20442;-83
2023/03/06 01:27:50;;;;;;;6.13;4.95;;;;;;;;;;4970573;28;20062;-84
2023/03/06 01:30:18;;;;;;;8.65;5.30;;;;;;;;;;4972219;28;20053;-83
2023/03/06 01:32:45;;;;;;;7.88;5.28;;;;;;;;;;4979260;28;20063;-84
2023/03/06 01:35:17;;;;;;;6.45;5.05;;;;;;;;;;4979861;28;20704;-84
2023/03/06 01:37:44;;;;;;;7.43;5.57;;;;;;;;;;4979085;28;20141;-83
2023/03/06 01:40:12;;;;;;;8.15;4.93;;;;;;;;;;4978281;28;20588;-83
2023/03/06 01:42:49;;;;;;;6.93;4.60;;;;;;;;;;4975212;28;20058;-84
2023/03/06 01:45:16;;;;;;;7.45;5.32;;;;;;;;;;4976634;28;20042;-84
2023/03/06 01:47:44;;;;;;;6.32;4.43;;;;;;;;;;4980527;28;20124;-84
2023/03/06 01:50:11;;;;;;;7.25;5.03;;;;;;;;;;4978082;28;20576;-84
2023/03/06 01:52:40;;;;;;;9.40;5.40;;;;;;;;;;4977795;28;20416;-84
2023/03/06 01:55:09;;;;;;;5.05;4.47;;;;;;;;;;4977575;28;20098;-84
2023/03/06 01:57:43;;;;;;;9.98;5.45;;;;;;;;;;4976201;28;20417;-84
2023/03/06 02:00:13;;;;;;;8.13;5.30;;;;;;;;;;4975878;28;20050;-85
2023/03/06 02:02:47;;;;;;;11.75;5.90;;;;;;;;;;4977184;28;20491;-86
2023/03/06 02:05:14;;;;;;;6.75;5.88;;;;;;;;;;4977348;28;20078;-84
2023/03/06 02:07:45;;;;;;;7.50;4.95;;;;;;;;;;4975826;28;20053;-84
2023/03/06 02:10:18;;;;;;;11.20;7.03;;;;;;;;;;4981503;28;20043;-85
2023/03/06 02:12:47;;;;;;;10.10;6.05;;;;;;;;;;4983431;28;20062;-86
2023/03/06 02:15:19;;;;;;;7.55;5.20;;;;;;;;;;4985712;28;20065;-85
2023/03/06 02:17:49;;;;;;;8.23;5.57;;;;;;;;;;4994339;28;20043;-83
2023/03/06 02:20:25;;;;;;;7.45;5.47;;;;;;;;;;4982765;28;20077;-83
2023/03/06 02:22:56;;;;;;;7.72;4.95;;;;;;;;;;4979856;28;20070;-84
2023/03/06 02:25:35;;;;;;;11.57;6.43;;;;;;;;;;4990333;28;20050;-84
2023/03/06 02:28:03;;;;;;;8.93;5.50;;;;;;;;;;4978499;28;20141;-84
2023/03/06 02:30:30;;;;;;;7.03;5.50;;;;;;;;;;4978614;28;20051;-85
2023/03/06 02:32:59;;;;;;;6.70;5.28;;;;;;;;;;4979211;28;20070;-83
2023/03/06 02:35:29;;;;;;;9.68;6.35;;;;;;;;;;4981476;28;20109;-84
2023/03/06 02:38:03;;;;;;;6.10;4.18;;;;;;;;;;4980918;28;20102;-85
2023/03/06 02:40:30;;;;;;;10.25;6.30;;;;;;;;;;4978396;28;20134;-84
2023/03/06 02:42:58;;;;;;;8.73;6.13;;;;;;;;;;4976298;28;20556;-83
2023/03/06 02:45:33;;;;;;;9.82;6.03;;;;;;;;;;4975115;28;20066;-84
2023/03/06 02:48:01;;;;;;;8.73;5.90;;;;;;;;;;4973989;28;20073;-84
2023/03/06 02:50:29;;;;;;;9.88;6.38;;;;;;;;;;4974318;28;20046;-84
2023/03/06 02:52:57;;;;;;;10.65;6.53;;;;;;;;;;4974013;28;20051;-84
2023/03/06 02:55:25;;;;;;;8.38;6.15;;;;;;;;;;4975782;28;20330;-83
2023/03/06 02:57:54;;;;;;;11.75;6.10;;;;;;;;;;4974855;28;20050;-84
2023/03/06 03:00:22;;;;;;;8.98;5.47;;;;;;;;;;4973605;28;20097;-84
2023/03/06 03:02:50;;;;;;;8.00;5.63;;;;;;;;;;4974641;28;20417;-83
2023/03/06 03:05:20;;;;;;;9.60;5.72;;;;;;;;;;4975927;28;20484;-83
2023/03/06 03:07:54;;;;;;;11.77;6.28;;;;;;;;;;4973785;28;20068;-85
2023/03/06 03:10:22;;;;;;;9.40;5.47;;;;;;;;;;4973338;28;20138;-84
2023/03/06 03:12:50;;;;;;;9.30;5.60;;;;;;;;;;4973602;28;20061;-84
2023/03/06 03:15:17;;;;;;;11.65;6.38;;;;;;;;;;4975492;28;20051;-84
2023/03/06 03:17:45;;;;;;;8.98;5.70;;;;;;;;;;4975689;28;20090;-84
2023/03/06 03:20:13;;;;;;;11.07;6.13;;;;;;;;;;4975672;28;20109;-84
2023/03/06 03:22:41;;;;;;;9.55;5.82;;;;;;;;;;4976472;28;20065;-85
2023/03/06 03:25:08;;;;;;;9.32;5.97;;;;;;;;;;4975231;28;20047;-84
2023/03/06 03:27:36;;;;;;;12.73;6.15;;;;;;;;;;4972584;28;20054;-84
2023/03/06 03:30:05;;;;;;;10.52;5.93;;;;;;;;;;4972358;28;20772;-83
2023/03/06 03:32:35;;;;;;;12.18;5.63;;;;;;;;;;4975489;28;20186;-84
2023/03/06 03:35:03;;;;;;;10.23;5.75;;;;;;;;;;4978206;28;20066;-84
2023/03/06 03:37:33;;;;;;;11.77;6.25;;;;;;;;;;4989364;28;20069;-86
2023/03/06 03:40:01;;;;;;;9.48;6.05;;;;;;;;;;4988896;28;20070;-85
2023/03/06 03:42:30;;;;;;;9.90;5.88;;;;;;;;;;4993315;28;20071;-85
2023/03/06 03:44:57;;;;;;;9.82;6.40;;;;;;;;;;4990635;28;20071;-85
2023/03/06 03:47:25;;;;;;;9.32;5.63;;;;;;;;;;4983556;28;20302;-84
2023/03/06 03:49:53;;;;;;;12.40;6.18;;;;;;;;;;4987401;28;20073;-86
2023/03/06 03:52:20;;;;;;;9.57;5.60;;;;;;;;;;4971918;28;20055;-83
2023/03/06 03:54:47;;;;;;;9.93;5.82;;;;;;;;;;4970692;28;20405;-84
2023/03/06 03:57:15;;;;;;;11.88;6.80;;;;;;;;;;4971301;28;20066;-84
2023/03/06 03:59:48;;;;;;;9.63;5.80;;;;;;;;;;4970816;28;20408;-84
2023/03/06 04:02:38;;;;;;;15.77;6.97;;;;;;;;;;4966619;28;20367;-85
2023/03/06 04:05:20;;;;;;;;;;;;;;;;;;4971235;28;20066;-84
2023/03/06 04:07:48;;;;;;;12.13;6.82;;;;;;;;;;4970290;28;19921;-84
2023/03/06 04:10:19;;;;;;;8.80;7.30;;;;;;;;;;4971640;28;20166;-84
2023/03/06 04:12:46;;;;;;;10.68;6.53;;;;;;;;;;4973314;28;20055;-84
2023/03/06 04:15:14;;;;;;;10.15;5.88;;;;;;;;;;4972421;28;20089;-84
2023/03/06 04:17:44;;;;;;;10.90;5.97;;;;;;;;;;4971609;28;20504;-87
2023/03/06 04:20:17;;;;;;;12.07;6.28;;;;;;;;;;4971577;28;20082;-84
2023/03/06 04:22:46;;;;;;;9.70;5.97;;;;;;;;;;4972310;28;20677;-84
2023/03/06 04:25:17;;;;;;;12.30;6.20;;;;;;;;;;4972289;28;20171;-84
2023/03/06 04:27:44;;;;;;;10.10;6.28;;;;;;;;;;4973785;28;20070;-84
2023/03/06 04:30:12;;;;;;;6.07;4.95;;;;;;;;;;4974409;28;20039;-85
2023/03/06 04:32:40;;;;;;;7.80;5.60;;;;;;;;;;4972512;28;20062;-83
2023/03/06 04:35:08;;;;;;;7.63;5.75;;;;;;;;;;4972496;28;20062;-84
2023/03/06 04:37:47;;;;;;;8.30;6.00;;;;;;;;;;4972474;28;20054;-84
2023/03/06 04:40:20;;;;;;;8.90;6.00;;;;;;;;;;5077401;23;20829;-78
2023/03/06 04:42:48;;;;;;;13.23;6.43;;;;;;;;;;5026363;28;20054;-76
2023/03/06 04:45:15;;;;;;;11.88;6.68;;;;;;;;;;5026570;28;20049;-79
2023/03/06 04:47:43;;;;;;;11.05;6.28;;;;;;;;;;5026596;28;20045;-76
2023/03/06 04:50:10;;;;;;;10.48;6.35;;;;;;;;;;5026457;28;20049;-77
2023/03/06 04:52:41;;;;;;;8.55;5.72;;;;;;;;;;5026393;28;20060;-78
2023/03/06 04:55:09;;;;;;;7.93;5.72;;;;;;;;;;5026843;28;20065;-78
2023/03/06 04:57:37;;;;;;;10.57;6.80;;;;;;;;;;5027030;28;20077;-76
2023/03/06 05:00:07;;;;;;;9.43;6.32;;;;;;;;;;5026369;28;20056;-76
2023/03/06 05:02:35;;;;;;;9.85;6.63;;;;;;;;;;5025968;28;20049;-76
2023/03/06 05:05:03;;;;;;;7.13;5.40;;;;;;;;;;5026597;28;20049;-77
2023/03/06 05:07:31;;;;;;;9.90;5.60;;;;;;;;;;5026127;28;20049;-79
2023/03/06 05:09:59;;;;;;;9.18;6.00;;;;;;;;;;5026513;28;20045;-76
2023/03/06 05:12:26;;;;;;;10.70;7.38;;;;;;;;;;5026058;28;20054;-78
2023/03/06 05:14:53;;;;;;;12.55;7.13;;;;;;;;;;5008817;28;20049;-76
2023/03/06 05:17:21;;;;;;;17.83;8.45;;;;;;;;;;5026489;28;20140;-77
2023/03/06 05:19:48;;;;;;;12.70;7.10;;;;;;;;;;5030752;28;20053;-76
2023/03/06 05:22:16;;;;;;;13.48;7.05;;;;;;;;;;5030899;28;20503;-79
2023/03/06 05:24:43;;;;;;;10.55;7.32;;;;;;;;;;5033687;28;20045;-77
2023/03/06 05:27:11;;;;;;;11.13;7.53;;;;;;;;;;5030092;28;20057;-76
2023/03/06 05:29:38;;;;;;;14.57;8.23;;;;;;;;;;5008075;28;20045;-76
2023/03/06 05:32:05;;;;;;;13.10;7.43;;;;;;;;;;5025649;28;20111;-79
2023/03/06 05:34:33;;;;;;;15.35;8.48;;;;;;;;;;5025617;28;20053;-77
2023/03/06 05:37:00;;;;;;;11.25;7.68;;;;;;;;;;5025840;28;20049;-78
2023/03/06 05:39:28;;;;;;;24.00;14.43;;;;;;;;;;5025833;28;20396;-78
2023/03/06 05:41:55;;;;;;;14.80;8.25;;;;;;;;;;5025619;28;20606;-76
2023/03/06 05:44:23;;;;;;;14.35;7.57;;;;;;;;;;5025956;28;20057;-76
2023/03/06 05:46:50;;;;;;;12.85;7.45;;;;;;;;;;5025427;28;20045;-78
2023/03/06 05:49:17;;;;;;;11.00;7.80;;;;;;;;;;5025784;28;20144;-78
2023/03/06 05:51:45;;;;;;;13.70;8.32;;;;;;;;;;5007849;28;20049;-79
2023/03/06 05:54:12;;;;;;;41.80;31.35;;;;;;;;;;5024950;28;20419;-76
2023/03/06 05:56:39;;;;;;;12.15;7.43;;;;;;;;;;5025166;28;20080;-76
2023/03/06 05:59:09;;;;;;;13.45;7.55;;;;;;;;;;5025057;28;20048;-77
2023/03/06 06:01:36;;;;;;;10.07;6.93;;;;;;;;;;5024646;28;20045;-76
2023/03/06 06:04:04;;;;;;;14.20;9.15;;;;;;;;;;5024797;28;20080;-77
2023/03/06 06:06:31;;;;;;;14.15;9.18;;;;;;;;;;5024508;28;20490;-77
2023/03/06 06:08:58;;;;;;;16.88;8.15;;;;;;;;;;5024996;28;20120;-79
2023/03/06 06:11:26;;;;;;;15.70;9.52;;;;;;;;;;5025484;28;20056;-77
2023/03/06 06:13:53;;;;;;;14.60;9.43;;;;;;;;;;5025476;28;20045;-76
2023/03/06 06:16:21;;;;;;;16.67;8.50;;;;;;;;;;5025016;28;20064;-78
2023/03/06 06:18:48;;;;;;;13.77;7.22;;;;;;;;;;5027316;28;20091;-77
2023/03/06 06:21:16;;;;;;;15.43;9.02;;;;;;;;;;5027955;28;20053;-78
2023/03/06 06:23:43;;;;;;;13.68;9.35;;;;;;;;;;5027922;28;20052;-76
2023/03/06 06:26:10;;;;;;;13.07;7.72;;;;;;;;;;5022439;28;20042;-79
2023/03/06 06:28:38;;;;;;;14.30;8.27;;;;;;;;;;5025882;28;20048;-76
2023/03/06 06:31:10;;;;;;;13.40;7.88;;;;;;;;;;5028531;28;20107;-77
2023/03/06 06:33:38;;;;;;;14.00;8.60;;;;;;;;;;5022457;28;20064;-76
2023/03/06 06:36:14;;;;;;;16.45;9.40;;;;;;;;;;5016355;28;20045;-76
2023/03/06 06:38:41;;;;;;;13.55;8.77;;;;;;;;;;5027815;28;20067;-76
2023/03/06 06:41:08;;;;;;;17.27;10.13;;;;;;;;;;5026880;28;20045;-77
2023/03/06 06:43:56;;;;;;;20.13;9.02;;;;;;;;;;5026854;28;20041;-80
2023/03/06 06:46:26;;;;;;;14.93;8.07;;;;;;;;;;5025044;28;20040;-78
2023/03/06 06:49:13;;;;;;;10.75;7.28;;;;;;;;;;5027305;28;20048;-76
2023/03/06 06:51:41;;;;;;;15.13;8.13;;;;;;;;;;5028296;28;20574;-78
2023/03/06 06:54:09;;;;;;;16.58;8.57;;;;;;;;;;5028332;28;20084;-77
2023/03/06 06:56:36;;;;;;;14.73;7.78;;;;;;;;;;5028483;28;20052;-78
2023/03/06 06:59:04;;;;;;;12.05;7.00;;;;;;;;;;5028643;28;20522;-78
2023/03/06 07:01:43;;;;;;;12.45;7.18;;;;;;;;;;5025524;28;20051;-77
2023/03/06 07:04:14;;;;;;;12.27;7.32;;;;;;;;;;5028687;28;20088;-78
2023/03/06 07:06:41;;;;;;;10.40;6.40;;;;;;;;;;5027575;28;20045;-79
2023/03/06 07:09:09;;;;;;;11.90;6.82;;;;;;;;;;5025590;28;20040;-79
2023/03/06 07:11:37;;;;;;;12.35;6.80;;;;;;;;;;5026112;28;20106;-80
2023/03/06 07:14:04;;;;;;;11.45;6.80;;;;;;;;;;5023655;28;20045;-76
2023/03/06 07:16:32;;;;;;;12.10;7.10;;;;;;;;;;5025351;28;20091;-78
2023/03/06 07:18:59;;;;;;;12.63;7.75;;;;;;;;;;5026361;28;20055;-79
2023/03/06 07:21:26;;;;;;;17.15;7.88;;;;;;;;;;5018251;28;20053;-79
2023/03/06 07:23:56;;;;;;;14.85;7.25;;;;;;;;;;5026855;28;20057;-80
2023/03/06 07:26:24;;;;;;;10.73;6.25;;;;;;;;;;5025974;28;20100;-77
2023/03/06 07:28:54;;;;;;;12.57;7.20;;;;;;;;;;5024436;28;20044;-76
2023/03/06 07:31:23;;;;;;;12.13;6.88;;;;;;;;;;5027693;28;20476;-77
2023/03/06 07:33:52;;;;;;;10.00;7.20;;;;;;;;;;5027374;28;20045;-76
2023/03/06 07:36:19;;;;;;;11.80;7.05;;;;;;;;;;5027253;28;20476;-78
2023/03/06 07:38:47;;;;;;;11.07;7.32;;;;;;;;;;5028293;28;20055;-78
2023/03/06 07:41:16;;;;;;;15.00;6.90;;;;;;;;;;5027946;28;20652;-77
2023/03/06 07:43:44;;;;;;;12.27;7.55;;;;;;;;;;5020097;28;20119;-77
2023/03/06 07:46:13;;;;;;;16.15;7.45;;;;;;;;;;5011727;28;20507;-76
2023/03/06 07:48:41;;;;;;;15.10;7.47;;;;;;;;;;5025534;28;20551;-79
2023/03/06 07:51:16;;;;;;;11.73;7.55;;;;;;;;;;5027364;28;20033;-78
2023/03/06 07:53:44;;;;;;;15.30;7.40;;;;;;;;;;5007985;28;20054;-76
2023/03/06 07:56:12;;;;;;;11.20;7.38;;;;;;;;;;5008573;28;20049;-78
2023/03/06 07:58:40;;;;;;;23.33;8.40;;;;;;;;;;5008552;28;20062;-77
2023/03/06 08:01:10;;;;;;;14.82;8.13;;;;;;;;;;5007519;28;20046;-78
2023/03/06 08:03:37;;;;;;;13.30;7.85;;;;;;;;;;5007175;28;20496;-77
2023/03/06 08:06:09;;;;;;;11.63;8.20;;;;;;;;;;5010316;28;20053;-77
2023/03/06 08:08:38;;;;;;;13.00;8.38;;;;;;;;;;5027289;28;20033;-77
2023/03/06 08:11:06;;;;;;;15.50;8.07;;;;;;;;;;5026626;28;20522;-79
2023/03/06 08:13:33;;;;;;;18.15;8.88;;;;;;;;;;5026545;28;20434;-76
2023/03/06 08:16:01;;;;;;;14.73;8.90;;;;;;;;;;5026547;28;20805;-78
2023/03/06 08:18:29;;;;;;;14.45;9.07;;;;;;;;;;5026664;28;20042;-77
2023/03/06 08:21:10;;;;;;;16.67;9.68;;;;;;;;;;5025608;28;20049;-76
2023/03/06 08:23:37;;;;;;;13.77;8.70;;;;;;;;;;5024466;28;20045;-78
2023/03/06 08:26:06;;;;;;;13.50;8.68;;;;;;;;;;5026758;28;20061;-76
2023/03/06 08:28:34;;;;;;;13.95;7.35;;;;;;;;;;5026876;28;20450;-79
2023/03/06 08:31:09;;;;;;;17.58;9.18;;;;;;;;;;5026445;28;20823;-77
2023/03/06 08:33:37;;;;;;;17.40;8.77;;;;;;;;;;5027178;28;20060;-81
2023/03/06 08:36:07;;;;;;;16.35;9.60;;;;;;;;;;5026900;28;20491;-77
2023/03/06 08:38:34;;;;;;;14.48;8.85;;;;;;;;;;5026695;28;20631;-77
2023/03/06 08:41:02;;;;;;;15.32;8.93;;;;;;;;;;5026446;28;20060;-77
2023/03/06 08:43:30;;;;;;;13.73;8.80;;;;;;;;;;5026636;28;20396;-79
2023/03/06 08:45:58;;;;;;;19.05;8.05;;;;;;;;;;5026586;28;20048;-76
2023/03/06 08:48:25;;;;;;;15.00;8.65;;;;;;;;;;5025520;28;20049;-80
2023/03/06 08:50:53;;;;;;;15.55;8.95;;;;;;;;;;5027547;28;20050;-76
2023/03/06 08:53:21;;;;;;;14.82;8.75;;;;;;;;;;5025618;28;20061;-80
2023/03/06 08:56:03;;;;;;;18.02;9.35;;;;;;;;;;5024547;28;20060;-78
2023/03/06 08:58:30;;;;;;;17.45;12.30;;;;;;;;;;5026013;28;20415;-78
2023/03/06 09:00:58;;;;;;;16.23;8.90;;;;;;;;;;5024548;28;20045;-77
2023/03/06 09:03:30;;;;;;;21.88;8.77;;;;;;;;;;5025819;28;20064;-78
2023/03/06 09:06:02;;;;;;;16.50;9.65;;;;;;;;;;5023808;28;20069;-77
2023/03/06 09:08:30;;;;;;;22.17;10.25;;;;;;;;;;5024011;28;20301;-77
2023/03/06 09:10:57;;;;;;;14.02;8.82;;;;;;;;;;5024825;28;20048;-77
2023/03/06 09:13:24;;;;;;;17.42;10.30;;;;;;;;;;5024473;28;20049;-78
2023/03/06 09:15:52;;;;;;;16.15;10.55;;;;;;;;;;5024233;28;20051;-77
2023/03/06 09:18:19;;;;;;;16.05;9.43;;;;;;;;;;5021829;28;20057;-77
2023/03/06 09:20:47;;;;;;;22.67;9.85;;;;;;;;;;5025373;28;20137;-78
2023/03/06 09:23:23;;;;;;;20.25;10.95;;;;;;;;;;5022319;28;20454;-78
2023/03/06 09:25:55;;;;;;;20.83;10.85;;;;;;;;;;5023868;28;20068;-79
2023/03/06 09:28:23;;;;;;;22.40;10.60;;;;;;;;;;5023745;28;20408;-78
2023/03/06 09:30:51;;;;;;;20.13;10.48;;;;;;;;;;5023248;28;20523;-79
2023/03/06 09:33:30;;;;;;;22.63;14.13;;;;;;;;;;5014072;28;20045;-79
2023/03/06 09:35:57;;;;;;;20.08;10.80;;;;;;;;;;5020512;28;20061;-78
2023/03/06 09:38:27;;;;;;;15.07;9.95;;;;;;;;;;5024996;28;20052;-80
2023/03/06 09:41:00;;;;;;;21.42;10.30;;;;;;;;;;5025572;28;20052;-80
2023/03/06 09:43:34;;;;;;;19.08;10.93;;;;;;;;;;5023898;28;20573;-77
2023/03/06 09:46:18;;;;;;;15.88;10.07;;;;;;;;;;5024291;28;20137;-80
2023/03/06 09:48:53;;;;;;;23.20;10.65;;;;;;;;;;5023529;28;20052;-79
2023/03/06 09:51:24;;;;;;;24.90;20.52;;;;;;;;;;5024213;28;20095;-76
2023/03/06 09:54:02;;;;;;;17.40;9.65;;;;;;;;;;5029231;28;20053;-79
2023/03/06 09:56:32;;;;;;;22.85;9.93;;;;;;;;;;5017434;28;20043;-76
2023/03/06 09:59:07;;;;;;;20.70;9.65;;;;;;;;;;5027404;28;20397;-79
2023/03/06 10:01:39;;;;;;;13.55;9.45;;;;;;;;;;5024805;28;20216;-79
2023/03/06 10:04:10;;;;;;;17.52;9.57;;;;;;;;;;5026662;28;20384;-80
2023/03/06 10:06:46;;;;;;;16.70;8.90;;;;;;;;;;5027025;28;20037;-76
2023/03/06 10:09:13;;;;;;;21.90;10.35;;;;;;;;;;5028616;28;20052;-76
2023/03/06 10:11:57;;;;;;;18.98;9.45;;;;;;;;;;5027714;28;20167;-77
2023/03/06 10:14:43;;;;;;;26.58;10.95;;;;;;;;;;5024714;28;20059;-78
2023/03/06 10:17:19;;;;;;;19.90;9.80;;;;;;;;;;5026290;28;20099;-77
2023/03/06 10:19:46;;;;;;;25.48;20.00;;;;;;;;;;5027353;28;20061;-77
2023/03/06 10:22:31;;;;;;;15.57;9.25;;;;;;;;;;5028371;28;20050;-80
2023/03/06 10:25:11;;;;;;;16.65;9.65;;;;;;;;;;5027245;28;20041;-78
2023/03/06 10:27:46;;;;;;;53.22;40.55;;;;;;;;;;5009565;28;20060;-78
2023/03/06 10:30:32;;;;;;;20.20;15.68;;;;;;;;;;5027274;28;20045;-77
2023/03/06 10:33:03;;;;;;;18.27;10.40;;;;;;;;;;5023433;28;20415;-76
2023/03/06 10:35:32;;;;;;;21.95;12.43;;;;;;;;;;5018872;28;20119;-78
2023/03/06 10:38:15;;;;;;;18.80;10.05;;;;;;;;;;5027604;28;20049;-77
2023/03/06 10:41:04;;;;;;;17.35;11.05;;;;;;;;;;5029246;23;20074;-91
2023/03/06 10:44:08;;;;;;;15.77;9.10;;;;;;;;;;5017186;28;20054;-91
2023/03/06 10:47:45;;;;;;;19.77;9.60;;;;;;;;;;5033567;28;20120;-91
2023/03/06 10:50:33;;;;;;;15.48;9.65;;;;;;;;;;5024266;28;20526;-92
2023/03/06 10:54:12;;;;;;;29.10;23.52;;;;;;;;;;5018386;28;20627;-90
2023/03/06 10:56:56;;;;;;;15.85;10.07;;;;;;;;;;5030383;28;20033;-91
2023/03/06 10:59:27;;;;;;;16.70;10.13;;;;;;;;;;5032290;28;20057;-92
2023/03/06 11:02:00;;;;;;;22.45;15.13;;;;;;;;;;5021813;28;20418;-91
2023/03/06 11:04:57;;;;;;;18.42;9.82;;;;;;;;;;5025606;28;20049;-91
2023/03/06 11:07:38;;;;;;;27.48;24.63;;;;;;;;;;5035533;28;20045;-92
2023/03/06 11:10:19;;;;;;;46.47;42.70;;;;;;;;;;5028086;28;20137;-92
2023/03/06 11:13:06;;;;;;;39.40;29.42;;;;;;;;;;5022782;28;20049;-92
2023/03/06 11:16:19;;;;;;;33.92;31.25;;;;;;;;;;5003346;28;20115;-92
2023/03/06 11:19:45;;;;;;;17.30;10.23;;;;;;;;;;4999929;28;20041;-92
2023/03/06 11:22:39;;;;;;;18.90;11.15;;;;;;;;;;5027846;28;20057;-91
2023/03/06 11:25:20;;;;;;;15.70;9.93;;;;;;;;;;5032741;28;20048;-92
2023/03/06 11:28:16;;;;;;;22.75;16.73;;;;;;;;;;5031037;28;20072;-91
2023/03/06 11:34:59;;;;;;;21.35;13.88;;;;;;;;;;4981465;28;20046;-91
2023/03/06 11:37:58;;;;;;;23.83;11.52;;;;;;;;;;4953284;28;20035;-91
2023/03/06 11:41:14;;;;;;;22.45;11.55;;;;;;;;;;4945431;28;20098;-92
2023/03/06 11:44:43;;;;;;;16.92;10.43;;;;;;;;;;4945869;28;20627;-92
2023/03/06 11:51:21;;;;;;;16.95;10.45;;;;;;;;;;4960045;28;20109;-91
2023/03/06 11:54:05;;;;;;;52.50;47.97;;;;;;;;;;4963180;28;20043;-91
2023/03/06 11:56:59;;;;;;;19.48;10.63;;;;;;;;;;4967151;28;20111;-91
2023/03/06 12:01:04;;;;;;;21.52;14.15;;;;;;;;;;4983128;28;20042;-93
2023/03/06 12:04:26;;;;;;;24.13;21.10;;;;;;;;;;4929412;29;20055;-90
2023/03/06 12:07:32;;;;;;;15.82;9.90;;;;;;;;;;4865924;29;20049;-91
2023/03/06 12:14:57;;;;;;;19.55;11.40;;;;;;;;;;4875239;29;20055;-91
2023/03/06 12:18:38;;;;;;;223.52;205.52;;;;;;;;;;4876567;29;20160;-92
2023/03/06 12:21:21;;;;;;;27.52;25.00;;;;;;;;;;4875971;29;20480;-92
2023/03/06 12:24:49;;;;;;;17.30;10.13;;;;;;;;;;4992948;23;20067;-79
2023/03/06 12:27:26;;;;;;;15.63;10.80;;;;;;;;;;5002244;28;20104;-79
2023/03/06 12:29:57;;;;;;;15.63;13.07;;;;;;;;;;5023154;28;20545;-79
2023/03/06 12:32:44;;;;;;;67.93;61.47;;;;;;;;;;5016161;28;20422;-79
2023/03/06 12:35:33;;;;;;;187.88;173.93;;;;;;;;;;4987749;28;20050;-80
2023/03/06 12:38:00;;;;;;;18.02;15.40;;;;;;;;;;5013176;28;20108;-81
2023/03/06 12:40:34;;;;;;;115.05;106.57;;;;;;;;;;5009564;28;20054;-78
2023/03/06 12:43:04;;;;;;;13.05;8.45;;;;;;;;;;5010647;28;20058;-79
2023/03/06 12:45:36;;;;;;;21.27;19.02;;;;;;;;;;5012824;28;20052;-81
2023/03/06 12:48:09;;;;;;;70.40;65.40;;;;;;;;;;5013214;28;20056;-81
2023/03/06 12:50:36;;;;;;;16.00;14.32;;;;;;;;;;4995726;28;20132;-81
2023/03/06 12:53:06;;;;;;;13.40;9.18;;;;;;;;;;5004535;28;20049;-81
2023/03/06 12:55:43;;;;;;;15.90;12.45;;;;;;;;;;5020896;28;20487;-81
2023/03/06 12:58:29;;;;;;;22.80;19.92;;;;;;;;;;5016658;28;20058;-81
2023/03/06 13:01:04;;;;;;;37.67;34.17;;;;;;;;;;5013843;28;20050;-81
2023/03/06 13:03:53;;;;;;;15.52;9.93;;;;;;;;;;5014982;28;20050;-80
2023/03/06 13:06:20;;;;;;;23.73;21.33;;;;;;;;;;5013901;28;20531;-81
2023/03/06 13:09:01;;;;;;;14.63;9.02;;;;;;;;;;4996384;28;20046;-80
2023/03/06 13:11:47;;;;;;;12.82;8.52;;;;;;;;;;5013492;28;20057;-82
2023/03/06 13:14:49;;;;;;;67.70;62.95;;;;;;;;;;5012204;28;20109;-81
2023/03/06 13:17:25;;;;;;;11.52;8.90;;;;;;;;;;5013856;28;20065;-81
2023/03/06 13:20:19;;;;;;;15.10;9.35;;;;;;;;;;5011773;28;20104;-81
2023/03/06 13:22:47;;;;;;;13.57;8.52;;;;;;;;;;5010966;28;20054;-81
2023/03/06 13:25:20;;;;;;;15.18;8.65;;;;;;;;;;5009968;28;20038;-80
2023/03/06 13:27:54;;;;;;;59.75;55.35;;;;;;;;;;5009662;28;20054;-80
2023/03/06 13:30:36;;;;;;;14.95;12.05;;;;;;;;;;5009413;28;20321;-81
2023/03/06 13:33:24;;;;;;;41.20;33.13;;;;;;;;;;5022309;28;20504;-81
2023/03/06 13:35:51;;;;;;;16.02;8.90;;;;;;;;;;5024393;28;20053;-82
2023/03/06 13:38:53;;;;;;;56.30;51.13;;;;;;;;;;5014082;28;20050;-81
2023/03/06 13:41:24;;;;;;;32.70;29.67;;;;;;;;;;5008974;28;20081;-79
2023/03/06 13:43:55;;;;;;;20.02;13.43;;;;;;;;;;5011023;28;20094;-80
2023/03/06 13:46:28;;;;;;;170.57;157.30;;;;;;;;;;5010474;28;20046;-81
2023/03/06 13:49:04;;;;;;;10.85;8.35;;;;;;;;;;5010620;28;20057;-81
2023/03/06 13:51:34;;;;;;;13.10;9.90;;;;;;;;;;5010027;28;20057;-80
2023/03/06 13:54:20;;;;;;;14.38;12.30;;;;;;;;;;5011153;28;20277;-80
2023/03/06 13:57:03;;;;;;;198.20;184.65;;;;;;;;;;5005366;28;20061;-81
2023/03/06 13:59:49;;;;;;;19.52;17.63;;;;;;;;;;5008081;28;20052;-81
2023/03/06 14:02:41;;;;;;;20.83;18.42;;;;;;;;;;5002126;28;20058;-81
2023/03/06 14:05:11;;;;;;;12.40;10.88;;;;;;;;;;5000350;28;20124;-80
2023/03/06 14:07:43;;;;;;;17.00;15.38;;;;;;;;;;4997762;28;20045;-80
2023/03/06 14:10:13;;;;;;;19.92;8.93;;;;;;;;;;4993182;28;20076;-80
2023/03/06 14:12:50;;;;;;;12.23;8.40;;;;;;;;;;5002586;28;20062;-81
2023/03/06 14:15:23;;;;;;;15.88;10.20;;;;;;;;;;5018387;28;20042;-81
2023/03/06 14:18:09;;;;;;;19.63;17.67;;;;;;;;;;5005072;28;20060;-80
2023/03/06 14:20:41;;;;;;;31.23;28.35;;;;;;;;;;5003730;28;20053;-80
2023/03/06 14:23:20;;;;;;;14.65;12.27;;;;;;;;;;5003346;28;20042;-80
2023/03/06 14:25:51;;;;;;;40.55;37.50;;;;;;;;;;4984491;28;20053;-81
2023/03/06 14:28:23;;;;;;;404.05;363.45;;;;;;;;;;4986215;28;20050;-80
2023/03/06 14:30:51;;;;;;;59.17;54.33;;;;;;;;;;4985813;28;20279;-80
2023/03/06 14:33:31;;;;;;;24.08;22.00;;;;;;;;;;5003792;28;20518;-80
2023/03/06 14:36:02;;;;;;;49.17;45.42;;;;;;;;;;4991613;28;20132;-81
2023/03/06 14:38:33;;;;;;;43.03;39.65;;;;;;;;;;5000816;28;20136;-81
2023/03/06 14:41:00;;;;;;;10.95;9.75;;;;;;;;;;5009353;28;20060;-80
2023/03/06 14:43:30;;;;;;;60.65;56.40;;;;;;;;;;5008708;28;20137;-80
2023/03/06 14:45:58;;;;;;;61.03;56.10;;;;;;;;;;5007982;28;20092;-80
2023/03/06 14:48:40;;;;;;;32.83;29.88;;;;;;;;;;5007939;28;20077;-80
2023/03/06 14:51:14;;;;;;;13.35;7.95;;;;;;;;;;4991049;28;20085;-80
2023/03/06 14:53:43;;;;;;;81.38;74.55;;;;;;;;;;5005880;28;20042;-80
2023/03/06 14:56:14;;;;;;;14.55;12.23;;;;;;;;;;5002561;28;20084;-80
2023/03/06 14:58:50;;;;;;;13.80;10.88;;;;;;;;;;4996463;28;20054;-81
2023/03/06 15:01:21;;;;;;;14.77;10.00;;;;;;;;;;4994138;28;20050;-81
2023/03/06 15:03:50;;;;;;;13.85;8.65;;;;;;;;;;4996257;28;20142;-81
2023/03/06 15:06:19;;;;;;;12.48;9.30;;;;;;;;;;4996120;28;20077;-80
2023/03/06 15:08:48;;;;;;;11.52;7.70;;;;;;;;;;4995301;28;20053;-80
2023/03/06 15:11:15;;;;;;;22.50;20.30;;;;;;;;;;4995338;28;20046;-80
2023/03/06 15:13:59;;;;;;;44.83;40.88;;;;;;;;;;5002265;28;20096;-80
2023/03/06 15:16:27;;;;;;;11.38;8.38;;;;;;;;;;5013421;28;20073;-82
2023/03/06 15:19:02;;;;;;;20.05;15.38;;;;;;;;;;5014654;28;20101;-81